sensor_id;sensor_type;location;lat;lon;timestamp;P1;durP1;ratioP1;P2;durP2;ratioP2
10347;SDS011;5220;43.192;23.284;2023-11-19T00:00:04;2.25;;;1.85;;
10347;SDS011;5220;43.192;23.284;2023-11-19T00:02:36;2.30;;;2.10;;
10347;SDS011;5220;43.192;23.284;2023-11-19T00:05:03;1.40;;;1.30;;
10347;SDS011;5220;43.192;23.284;2023-11-19T00:07:34;1.50;;;1.40;;
10347;SDS011;5220;43.192;23.284;2023-11-19T00:10:05;2.95;;;2.47;;
10347;SDS011;5220;43.192;23.284;2023-11-19T00:12:36;1.58;;;1.48;;
10347;SDS011;5220;43.192;23.284;2023-11-19T00:15:03;1.10;;;1.10;;
10347;SDS011;5220;43.192;23.284;2023-11-19T00:17:31;1.20;;;1.10;;
10347;SDS011;5220;43.192;23.284;2023-11-19T00:19:58;1.00;;;1.00;;
10347;SDS011;5220;43.192;23.284;2023-11-19T00:22:25;1.40;;;1.30;;
10347;SDS011;5220;43.192;23.284;2023-11-19T00:24:52;2.00;;;1.90;;
10347;SDS011;5220;43.192;23.284;2023-11-19T00:27:20;1.80;;;1.65;;
10347;SDS011;5220;43.192;23.284;2023-11-19T00:29:46;1.88;;;1.77;;
10347;SDS011;5220;43.192;23.284;2023-11-19T00:32:13;9.20;;;4.40;;
10347;SDS011;5220;43.192;23.284;2023-11-19T00:34:40;7.88;;;3.90;;
10347;SDS011;5220;43.192;23.284;2023-11-19T00:37:07;1.40;;;1.30;;
10347;SDS011;5220;43.192;23.284;2023-11-19T00:39:34;1.63;;;1.30;;
10347;SDS011;5220;43.192;23.284;2023-11-19T00:42:00;1.10;;;1.05;;
10347;SDS011;5220;43.192;23.284;2023-11-19T00:44:28;1.88;;;1.40;;
10347;SDS011;5220;43.192;23.284;2023-11-19T00:46:55;1.95;;;1.52;;
10347;SDS011;5220;43.192;23.284;2023-11-19T00:49:22;1.92;;;1.73;;
10347;SDS011;5220;43.192;23.284;2023-11-19T00:51:48;2.15;;;1.95;;
10347;SDS011;5220;43.192;23.284;2023-11-19T00:54:15;3.22;;;1.92;;
10347;SDS011;5220;43.192;23.284;2023-11-19T00:56:42;2.97;;;2.03;;
10347;SDS011;5220;43.192;23.284;2023-11-19T00:59:09;4.57;;;2.72;;
10347;SDS011;5220;43.192;23.284;2023-11-19T01:01:37;2.20;;;2.00;;
10347;SDS011;5220;43.192;23.284;2023-11-19T01:04:05;1.05;;;1.05;;
10347;SDS011;5220;43.192;23.284;2023-11-19T01:06:32;2.15;;;1.65;;
10347;SDS011;5220;43.192;23.284;2023-11-19T01:08:59;1.77;;;1.58;;
10347;SDS011;5220;43.192;23.284;2023-11-19T01:11:25;1.52;;;1.42;;
10347;SDS011;5220;43.192;23.284;2023-11-19T01:13:53;2.00;;;1.25;;
10347;SDS011;5220;43.192;23.284;2023-11-19T01:16:20;2.38;;;1.70;;
10347;SDS011;5220;43.192;23.284;2023-11-19T01:18:48;1.60;;;1.50;;
10347;SDS011;5220;43.192;23.284;2023-11-19T01:21:15;2.67;;;2.20;;
10347;SDS011;5220;43.192;23.284;2023-11-19T01:23:42;1.42;;;1.33;;
10347;SDS011;5220;43.192;23.284;2023-11-19T01:26:09;1.92;;;1.83;;
10347;SDS011;5220;43.192;23.284;2023-11-19T01:28:37;1.98;;;1.30;;
10347;SDS011;5220;43.192;23.284;2023-11-19T01:31:08;1.27;;;1.17;;
10347;SDS011;5220;43.192;23.284;2023-11-19T01:33:35;1.13;;;1.02;;
10347;SDS011;5220;43.192;23.284;2023-11-19T01:36:04;1.05;;;0.95;;
10347;SDS011;5220;43.192;23.284;2023-11-19T01:38:31;1.40;;;1.30;;
10347;SDS011;5220;43.192;23.284;2023-11-19T01:40:58;1.30;;;1.20;;
10347;SDS011;5220;43.192;23.284;2023-11-19T01:43:31;1.63;;;1.52;;
10347;SDS011;5220;43.192;23.284;2023-11-19T01:46:00;1.30;;;1.20;;
10347;SDS011;5220;43.192;23.284;2023-11-19T01:48:27;1.55;;;1.40;;
10347;SDS011;5220;43.192;23.284;2023-11-19T01:50:54;2.97;;;1.30;;
10347;SDS011;5220;43.192;23.284;2023-11-19T01:53:23;2.90;;;2.13;;
10347;SDS011;5220;43.192;23.284;2023-11-19T01:55:50;4.78;;;2.50;;
10347;SDS011;5220;43.192;23.284;2023-11-19T01:58:18;1.40;;;1.30;;
10347;SDS011;5220;43.192;23.284;2023-11-19T02:00:45;1.45;;;1.35;;
10347;SDS011;5220;43.192;23.284;2023-11-19T02:03:12;1.30;;;1.20;;
10347;SDS011;5220;43.192;23.284;2023-11-19T02:05:41;1.63;;;1.50;;
10347;SDS011;5220;43.192;23.284;2023-11-19T02:08:07;1.58;;;1.48;;
10347;SDS011;5220;43.192;23.284;2023-11-19T02:10:36;1.38;;;1.27;;
10347;SDS011;5220;43.192;23.284;2023-11-19T02:13:03;1.95;;;1.23;;
10347;SDS011;5220;43.192;23.284;2023-11-19T02:15:31;1.42;;;1.20;;
10347;SDS011;5220;43.192;23.284;2023-11-19T02:20:52;1.65;;;1.55;;
10347;SDS011;5220;43.192;23.284;2023-11-19T02:23:19;2.08;;;1.35;;
10347;SDS011;5220;43.192;23.284;2023-11-19T02:25:53;1.40;;;1.30;;
10347;SDS011;5220;43.192;23.284;2023-11-19T02:28:27;3.13;;;1.58;;
10347;SDS011;5220;43.192;23.284;2023-11-19T02:30:54;1.40;;;1.30;;
10347;SDS011;5220;43.192;23.284;2023-11-19T02:33:22;1.40;;;1.30;;
10347;SDS011;5220;43.192;23.284;2023-11-19T02:35:49;3.13;;;1.60;;
10347;SDS011;5220;43.192;23.284;2023-11-19T02:38:17;2.25;;;1.83;;
10347;SDS011;5220;43.192;23.284;2023-11-19T02:40:43;3.00;;;2.22;;
10347;SDS011;5220;43.192;23.284;2023-11-19T02:43:10;6.45;;;3.88;;
10347;SDS011;5220;43.192;23.284;2023-11-19T02:45:39;1.77;;;1.67;;
10347;SDS011;5220;43.192;23.284;2023-11-19T02:48:07;2.05;;;1.90;;
10347;SDS011;5220;43.192;23.284;2023-11-19T02:50:35;1.77;;;1.67;;
10347;SDS011;5220;43.192;23.284;2023-11-19T02:53:02;1.52;;;1.42;;
10347;SDS011;5220;43.192;23.284;2023-11-19T02:55:29;3.22;;;1.35;;
10347;SDS011;5220;43.192;23.284;2023-11-19T02:58:01;1.60;;;1.20;;
10347;SDS011;5220;43.192;23.284;2023-11-19T03:00:33;1.15;;;1.15;;
10347;SDS011;5220;43.192;23.284;2023-11-19T03:03:03;1.00;;;1.00;;
10347;SDS011;5220;43.192;23.284;2023-11-19T03:05:42;2.78;;;2.42;;
10347;SDS011;5220;43.192;23.284;2023-11-19T03:08:10;5.03;;;3.28;;
10347;SDS011;5220;43.192;23.284;2023-11-19T03:10:37;4.45;;;3.22;;
10347;SDS011;5220;43.192;23.284;2023-11-19T03:13:04;3.17;;;2.88;;
10347;SDS011;5220;43.192;23.284;2023-11-19T03:15:31;3.65;;;3.03;;
10347;SDS011;5220;43.192;23.284;2023-11-19T03:17:57;2.33;;;1.90;;
10347;SDS011;5220;43.192;23.284;2023-11-19T03:20:25;2.42;;;1.73;;
10347;SDS011;5220;43.192;23.284;2023-11-19T03:22:54;1.98;;;1.83;;
10347;SDS011;5220;43.192;23.284;2023-11-19T03:25:22;2.20;;;2.00;;
10347;SDS011;5220;43.192;23.284;2023-11-19T03:27:51;2.03;;;1.83;;
10347;SDS011;5220;43.192;23.284;2023-11-19T03:30:18;1.70;;;1.60;;
10347;SDS011;5220;43.192;23.284;2023-11-19T03:32:46;2.42;;;2.22;;
10347;SDS011;5220;43.192;23.284;2023-11-19T03:35:12;2.30;;;1.90;;
10347;SDS011;5220;43.192;23.284;2023-11-19T03:37:40;1.65;;;1.55;;
10347;SDS011;5220;43.192;23.284;2023-11-19T03:40:07;1.60;;;1.50;;
10347;SDS011;5220;43.192;23.284;2023-11-19T03:42:35;1.33;;;1.20;;
10347;SDS011;5220;43.192;23.284;2023-11-19T03:45:02;1.55;;;1.45;;
10347;SDS011;5220;43.192;23.284;2023-11-19T03:47:29;3.83;;;1.52;;
10347;SDS011;5220;43.192;23.284;2023-11-19T03:49:56;1.60;;;1.50;;
10347;SDS011;5220;43.192;23.284;2023-11-19T03:52:23;2.03;;;1.83;;
10347;SDS011;5220;43.192;23.284;2023-11-19T03:54:51;1.90;;;1.60;;
10347;SDS011;5220;43.192;23.284;2023-11-19T03:57:18;1.35;;;1.25;;
10347;SDS011;5220;43.192;23.284;2023-11-19T03:59:45;1.70;;;1.60;;
10347;SDS011;5220;43.192;23.284;2023-11-19T04:02:11;1.92;;;1.80;;
10347;SDS011;5220;43.192;23.284;2023-11-19T04:04:38;2.38;;;1.90;;
10347;SDS011;5220;43.192;23.284;2023-11-19T04:07:05;1.97;;;1.77;;
10347;SDS011;5220;43.192;23.284;2023-11-19T04:09:32;1.63;;;1.53;;
10347;SDS011;5220;43.192;23.284;2023-11-19T04:12:00;2.20;;;1.57;;
10347;SDS011;5220;43.192;23.284;2023-11-19T04:14:27;1.80;;;1.70;;
10347;SDS011;5220;43.192;23.284;2023-11-19T04:16:54;3.33;;;1.80;;
10347;SDS011;5220;43.192;23.284;2023-11-19T04:19:20;2.83;;;2.27;;
10347;SDS011;5220;43.192;23.284;2023-11-19T04:21:48;2.87;;;2.50;;
10347;SDS011;5220;43.192;23.284;2023-11-19T04:24:14;2.73;;;2.53;;
10347;SDS011;5220;43.192;23.284;2023-11-19T04:26:41;5.00;;;2.37;;
10347;SDS011;5220;43.192;23.284;2023-11-19T04:29:12;4.53;;;2.00;;
10347;SDS011;5220;43.192;23.284;2023-11-19T04:31:43;2.23;;;2.03;;
10347;SDS011;5220;43.192;23.284;2023-11-19T04:34:11;2.15;;;1.95;;
10347;SDS011;5220;43.192;23.284;2023-11-19T04:36:38;3.13;;;2.50;;
10347;SDS011;5220;43.192;23.284;2023-11-19T04:39:05;2.65;;;2.25;;
10347;SDS011;5220;43.192;23.284;2023-11-19T04:41:34;5.47;;;3.30;;
10347;SDS011;5220;43.192;23.284;2023-11-19T04:44:01;5.37;;;4.50;;
10347;SDS011;5220;43.192;23.284;2023-11-19T04:46:29;7.03;;;3.77;;
10347;SDS011;5220;43.192;23.284;2023-11-19T04:48:56;3.53;;;2.67;;
10347;SDS011;5220;43.192;23.284;2023-11-19T04:51:23;5.20;;;4.00;;
10347;SDS011;5220;43.192;23.284;2023-11-19T04:53:49;4.43;;;3.63;;
10347;SDS011;5220;43.192;23.284;2023-11-19T04:56:17;8.83;;;6.17;;
10347;SDS011;5220;43.192;23.284;2023-11-19T04:58:46;7.57;;;6.17;;
10347;SDS011;5220;43.192;23.284;2023-11-19T05:01:13;6.10;;;4.67;;
10347;SDS011;5220;43.192;23.284;2023-11-19T05:03:44;6.47;;;4.03;;
10347;SDS011;5220;43.192;23.284;2023-11-19T05:06:12;3.93;;;3.53;;
10347;SDS011;5220;43.192;23.284;2023-11-19T05:08:39;3.27;;;2.73;;
10347;SDS011;5220;43.192;23.284;2023-11-19T05:11:05;3.15;;;2.75;;
10347;SDS011;5220;43.192;23.284;2023-11-19T05:13:32;3.83;;;2.80;;
10347;SDS011;5220;43.192;23.284;2023-11-19T05:15:59;2.30;;;2.07;;
10347;SDS011;5220;43.192;23.284;2023-11-19T05:18:25;3.10;;;1.90;;
10347;SDS011;5220;43.192;23.284;2023-11-19T05:20:54;2.55;;;2.35;;
10347;SDS011;5220;43.192;23.284;2023-11-19T05:23:20;3.20;;;2.40;;
10347;SDS011;5220;43.192;23.284;2023-11-19T05:25:47;3.50;;;2.97;;
10347;SDS011;5220;43.192;23.284;2023-11-19T05:28:14;2.70;;;2.30;;
10347;SDS011;5220;43.192;23.284;2023-11-19T05:30:41;4.10;;;2.77;;
10347;SDS011;5220;43.192;23.284;2023-11-19T05:33:09;4.40;;;3.57;;
10347;SDS011;5220;43.192;23.284;2023-11-19T05:35:36;5.13;;;3.23;;
10347;SDS011;5220;43.192;23.284;2023-11-19T05:38:04;4.17;;;3.43;;
10347;SDS011;5220;43.192;23.284;2023-11-19T05:40:31;4.07;;;3.17;;
10347;SDS011;5220;43.192;23.284;2023-11-19T05:42:58;2.38;;;2.17;;
10347;SDS011;5220;43.192;23.284;2023-11-19T05:45:24;5.53;;;3.67;;
10347;SDS011;5220;43.192;23.284;2023-11-19T05:47:51;3.77;;;1.70;;
10347;SDS011;5220;43.192;23.284;2023-11-19T05:50:18;2.57;;;2.00;;
10347;SDS011;5220;43.192;23.284;2023-11-19T05:52:46;9.50;;;4.80;;
10347;SDS011;5220;43.192;23.284;2023-11-19T05:55:14;3.57;;;2.60;;
10347;SDS011;5220;43.192;23.284;2023-11-19T05:57:40;2.40;;;2.20;;
10347;SDS011;5220;43.192;23.284;2023-11-19T06:00:08;1.70;;;1.60;;
10347;SDS011;5220;43.192;23.284;2023-11-19T06:02:38;1.87;;;1.77;;
10347;SDS011;5220;43.192;23.284;2023-11-19T06:05:05;1.90;;;1.80;;
10347;SDS011;5220;43.192;23.284;2023-11-19T06:07:34;1.90;;;1.70;;
10347;SDS011;5220;43.192;23.284;2023-11-19T06:10:04;5.90;;;4.17;;
10347;SDS011;5220;43.192;23.284;2023-11-19T06:12:33;4.60;;;3.50;;
10347;SDS011;5220;43.192;23.284;2023-11-19T06:15:03;2.77;;;2.23;;
10347;SDS011;5220;43.192;23.284;2023-11-19T06:17:33;2.77;;;2.40;;
10347;SDS011;5220;43.192;23.284;2023-11-19T06:20:00;3.00;;;2.27;;
10347;SDS011;5220;43.192;23.284;2023-11-19T06:22:29;6.87;;;4.40;;
10347;SDS011;5220;43.192;23.284;2023-11-19T06:24:56;21.40;;;12.70;;
10347;SDS011;5220;43.192;23.284;2023-11-19T06:27:23;37.37;;;22.23;;
10347;SDS011;5220;43.192;23.284;2023-11-19T06:29:51;40.77;;;26.40;;
10347;SDS011;5220;43.192;23.284;2023-11-19T06:32:18;32.87;;;21.83;;
10347;SDS011;5220;43.192;23.284;2023-11-19T06:34:45;23.10;;;16.60;;
10347;SDS011;5220;43.192;23.284;2023-11-19T06:37:11;18.03;;;13.47;;
10347;SDS011;5220;43.192;23.284;2023-11-19T06:39:38;9.37;;;5.13;;
10347;SDS011;5220;43.192;23.284;2023-11-19T06:42:05;6.03;;;5.43;;
10347;SDS011;5220;43.192;23.284;2023-11-19T06:44:32;6.05;;;4.97;;
10347;SDS011;5220;43.192;23.284;2023-11-19T06:47:00;6.53;;;4.73;;
10347;SDS011;5220;43.192;23.284;2023-11-19T06:49:27;6.03;;;4.20;;
10347;SDS011;5220;43.192;23.284;2023-11-19T06:51:54;8.52;;;7.63;;
10347;SDS011;5220;43.192;23.284;2023-11-19T06:54:20;4.90;;;4.00;;
10347;SDS011;5220;43.192;23.284;2023-11-19T06:56:48;3.90;;;3.50;;
10347;SDS011;5220;43.192;23.284;2023-11-19T06:59:15;3.85;;;3.45;;
10347;SDS011;5220;43.192;23.284;2023-11-19T07:01:41;5.72;;;4.40;;
10347;SDS011;5220;43.192;23.284;2023-11-19T07:04:11;4.65;;;4.25;;
10347;SDS011;5220;43.192;23.284;2023-11-19T07:06:38;4.00;;;3.60;;
10347;SDS011;5220;43.192;23.284;2023-11-19T07:09:06;2.97;;;2.67;;
10347;SDS011;5220;43.192;23.284;2023-11-19T07:11:35;1.73;;;1.63;;
10347;SDS011;5220;43.192;23.284;2023-11-19T07:14:03;2.10;;;1.90;;
10347;SDS011;5220;43.192;23.284;2023-11-19T07:16:31;2.72;;;2.53;;
10347;SDS011;5220;43.192;23.284;2023-11-19T07:18:59;19.55;;;13.52;;
10347;SDS011;5220;43.192;23.284;2023-11-19T07:21:27;7.28;;;6.20;;
10347;SDS011;5220;43.192;23.284;2023-11-19T07:23:54;7.65;;;6.20;;
10347;SDS011;5220;43.192;23.284;2023-11-19T07:26:21;8.93;;;7.40;;
10347;SDS011;5220;43.192;23.284;2023-11-19T07:28:48;7.95;;;6.95;;
10347;SDS011;5220;43.192;23.284;2023-11-19T07:31:14;8.48;;;7.07;;
10347;SDS011;5220;43.192;23.284;2023-11-19T07:33:41;8.77;;;7.20;;
10347;SDS011;5220;43.192;23.284;2023-11-19T07:36:09;9.63;;;6.63;;
10347;SDS011;5220;43.192;23.284;2023-11-19T07:38:37;4.47;;;3.95;;
10347;SDS011;5220;43.192;23.284;2023-11-19T07:41:05;4.00;;;3.45;;
10347;SDS011;5220;43.192;23.284;2023-11-19T07:43:34;3.47;;;2.63;;
10347;SDS011;5220;43.192;23.284;2023-11-19T07:46:00;4.00;;;2.30;;
10347;SDS011;5220;43.192;23.284;2023-11-19T07:48:29;4.90;;;2.70;;
10347;SDS011;5220;43.192;23.284;2023-11-19T07:50:55;5.75;;;4.90;;
10347;SDS011;5220;43.192;23.284;2023-11-19T07:53:22;7.25;;;6.22;;
10347;SDS011;5220;43.192;23.284;2023-11-19T07:55:50;13.02;;;8.63;;
10347;SDS011;5220;43.192;23.284;2023-11-19T07:58:17;12.43;;;8.77;;
10347;SDS011;5220;43.192;23.284;2023-11-19T08:00:43;12.07;;;8.93;;
10347;SDS011;5220;43.192;23.284;2023-11-19T08:03:10;14.32;;;11.30;;
10347;SDS011;5220;43.192;23.284;2023-11-19T08:05:37;12.70;;;7.30;;
10347;SDS011;5220;43.192;23.284;2023-11-19T08:08:04;15.48;;;10.23;;
10347;SDS011;5220;43.192;23.284;2023-11-19T08:10:31;7.70;;;6.45;;
10347;SDS011;5220;43.192;23.284;2023-11-19T08:12:59;8.43;;;7.15;;
10347;SDS011;5220;43.192;23.284;2023-11-19T08:15:26;5.63;;;5.03;;
10347;SDS011;5220;43.192;23.284;2023-11-19T08:17:53;2.92;;;2.72;;
10347;SDS011;5220;43.192;23.284;2023-11-19T08:20:19;3.78;;;2.92;;
10347;SDS011;5220;43.192;23.284;2023-11-19T08:22:46;18.42;;;14.27;;
10347;SDS011;5220;43.192;23.284;2023-11-19T08:25:13;13.95;;;11.02;;
10347;SDS011;5220;43.192;23.284;2023-11-19T08:27:40;8.38;;;6.93;;
10347;SDS011;5220;43.192;23.284;2023-11-19T08:30:10;5.13;;;4.45;;
10347;SDS011;5220;43.192;23.284;2023-11-19T08:32:37;7.70;;;4.57;;
10347;SDS011;5220;43.192;23.284;2023-11-19T08:35:04;4.80;;;4.00;;
10347;SDS011;5220;43.192;23.284;2023-11-19T08:37:30;3.90;;;3.33;;
10347;SDS011;5220;43.192;23.284;2023-11-19T08:39:57;7.72;;;5.47;;
10347;SDS011;5220;43.192;23.284;2023-11-19T08:42:24;12.48;;;9.23;;
10347;SDS011;5220;43.192;23.284;2023-11-19T08:44:51;4.80;;;4.13;;
10347;SDS011;5220;43.192;23.284;2023-11-19T08:47:21;3.45;;;3.15;;
10347;SDS011;5220;43.192;23.284;2023-11-19T08:49:50;6.70;;;4.82;;
10347;SDS011;5220;43.192;23.284;2023-11-19T08:52:17;3.67;;;1.92;;
10347;SDS011;5220;43.192;23.284;2023-11-19T08:54:44;8.52;;;7.25;;
10347;SDS011;5220;43.192;23.284;2023-11-19T08:57:10;1.95;;;1.75;;
10347;SDS011;5220;43.192;23.284;2023-11-19T08:59:37;4.00;;;2.72;;
10347;SDS011;5220;43.192;23.284;2023-11-19T09:02:04;3.30;;;2.25;;
10347;SDS011;5220;43.192;23.284;2023-11-19T09:04:33;1.83;;;1.73;;
10347;SDS011;5220;43.192;23.284;2023-11-19T09:07:01;9.35;;;3.88;;
10347;SDS011;5220;43.192;23.284;2023-11-19T09:09:28;2.30;;;2.10;;
10347;SDS011;5220;43.192;23.284;2023-11-19T09:11:55;2.20;;;2.00;;
10347;SDS011;5220;43.192;23.284;2023-11-19T09:14:21;4.43;;;3.70;;
10347;SDS011;5220;43.192;23.284;2023-11-19T09:16:50;1.95;;;1.83;;
10347;SDS011;5220;43.192;23.284;2023-11-19T09:19:17;2.00;;;1.80;;
10347;SDS011;5220;43.192;23.284;2023-11-19T09:21:45;2.70;;;2.50;;
10347;SDS011;5220;43.192;23.284;2023-11-19T09:24:14;2.00;;;1.80;;
10347;SDS011;5220;43.192;23.284;2023-11-19T09:26:41;3.88;;;3.50;;
10347;SDS011;5220;43.192;23.284;2023-11-19T09:29:07;2.10;;;1.50;;
10347;SDS011;5220;43.192;23.284;2023-11-19T09:31:34;1.80;;;1.70;;
10347;SDS011;5220;43.192;23.284;2023-11-19T09:34:01;1.58;;;1.48;;
10347;SDS011;5220;43.192;23.284;2023-11-19T09:36:28;1.95;;;1.75;;
10347;SDS011;5220;43.192;23.284;2023-11-19T09:38:56;1.77;;;1.55;;
10347;SDS011;5220;43.192;23.284;2023-11-19T09:41:22;2.15;;;1.90;;
10347;SDS011;5220;43.192;23.284;2023-11-19T09:43:53;2.10;;;1.90;;
10347;SDS011;5220;43.192;23.284;2023-11-19T09:46:19;2.90;;;2.28;;
10347;SDS011;5220;43.192;23.284;2023-11-19T09:48:49;1.50;;;1.40;;
10347;SDS011;5220;43.192;23.284;2023-11-19T09:51:20;1.50;;;1.40;;
10347;SDS011;5220;43.192;23.284;2023-11-19T09:53:47;1.50;;;1.40;;
10347;SDS011;5220;43.192;23.284;2023-11-19T09:56:15;1.70;;;1.23;;
10347;SDS011;5220;43.192;23.284;2023-11-19T09:58:43;3.33;;;1.35;;
10347;SDS011;5220;43.192;23.284;2023-11-19T10:01:09;3.25;;;1.42;;
10347;SDS011;5220;43.192;23.284;2023-11-19T10:03:37;1.80;;;1.52;;
10347;SDS011;5220;43.192;23.284;2023-11-19T10:06:06;2.95;;;1.58;;
10347;SDS011;5220;43.192;23.284;2023-11-19T10:08:33;1.85;;;1.70;;
10347;SDS011;5220;43.192;23.284;2023-11-19T10:11:00;1.52;;;1.42;;
10347;SDS011;5220;43.192;23.284;2023-11-19T10:13:29;1.52;;;1.40;;
10347;SDS011;5220;43.192;23.284;2023-11-19T10:15:56;1.58;;;1.48;;
10347;SDS011;5220;43.192;23.284;2023-11-19T10:18:24;1.50;;;1.40;;
10347;SDS011;5220;43.192;23.284;2023-11-19T10:20:52;1.80;;;1.70;;
10347;SDS011;5220;43.192;23.284;2023-11-19T10:23:20;1.80;;;1.30;;
10347;SDS011;5220;43.192;23.284;2023-11-19T10:25:47;1.40;;;1.30;;
10347;SDS011;5220;43.192;23.284;2023-11-19T10:28:14;1.30;;;1.20;;
10347;SDS011;5220;43.192;23.284;2023-11-19T10:30:44;1.20;;;1.10;;
10347;SDS011;5220;43.192;23.284;2023-11-19T10:33:11;1.30;;;1.20;;
10347;SDS011;5220;43.192;23.284;2023-11-19T10:35:51;1.30;;;1.20;;
10347;SDS011;5220;43.192;23.284;2023-11-19T10:38:19;1.52;;;1.42;;
10347;SDS011;5220;43.192;23.284;2023-11-19T10:40:47;2.20;;;2.00;;
10347;SDS011;5220;43.192;23.284;2023-11-19T10:43:14;1.85;;;1.75;;
10347;SDS011;5220;43.192;23.284;2023-11-19T10:45:41;3.15;;;2.60;;
10347;SDS011;5220;43.192;23.284;2023-11-19T10:48:09;2.42;;;2.22;;
10347;SDS011;5220;43.192;23.284;2023-11-19T10:50:38;18.63;;;12.75;;
10347;SDS011;5220;43.192;23.284;2023-11-19T10:53:07;3.80;;;2.28;;
10347;SDS011;5220;43.192;23.284;2023-11-19T10:55:35;2.60;;;2.25;;
10347;SDS011;5220;43.192;23.284;2023-11-19T10:58:04;2.80;;;1.98;;
10347;SDS011;5220;43.192;23.284;2023-11-19T11:00:33;1.83;;;1.73;;
10347;SDS011;5220;43.192;23.284;2023-11-19T11:03:05;15.18;;;10.55;;
10347;SDS011;5220;43.192;23.284;2023-11-19T11:05:38;4.68;;;4.25;;
10347;SDS011;5220;43.192;23.284;2023-11-19T11:08:07;3.80;;;3.35;;
10347;SDS011;5220;43.192;23.284;2023-11-19T11:10:35;3.92;;;3.33;;
10347;SDS011;5220;43.192;23.284;2023-11-19T11:13:06;2.70;;;2.30;;
10347;SDS011;5220;43.192;23.284;2023-11-19T11:15:33;8.32;;;7.43;;
10347;SDS011;5220;43.192;23.284;2023-11-19T11:18:01;3.92;;;3.63;;
10347;SDS011;5220;43.192;23.284;2023-11-19T11:20:30;5.55;;;4.30;;
10347;SDS011;5220;43.192;23.284;2023-11-19T11:23:07;4.10;;;3.63;;
10347;SDS011;5220;43.192;23.284;2023-11-19T11:25:56;5.78;;;5.22;;
10347;SDS011;5220;43.192;23.284;2023-11-19T11:28:35;8.27;;;7.57;;
10347;SDS011;5220;43.192;23.284;2023-11-19T11:31:10;7.13;;;6.43;;
10347;SDS011;5220;43.192;23.284;2023-11-19T11:33:57;3.22;;;2.92;;
10347;SDS011;5220;43.192;23.284;2023-11-19T11:36:36;11.57;;;10.25;;
10347;SDS011;5220;43.192;23.284;2023-11-19T11:39:14;3.20;;;2.90;;
10347;SDS011;5220;43.192;23.284;2023-11-19T11:41:42;5.40;;;4.60;;
10347;SDS011;5220;43.192;23.284;2023-11-19T11:44:10;8.60;;;7.32;;
10347;SDS011;5220;43.192;23.284;2023-11-19T11:46:55;43.15;;;39.05;;
10347;SDS011;5220;43.192;23.284;2023-11-19T11:49:28;6.20;;;4.55;;
10347;SDS011;5220;43.192;23.284;2023-11-19T11:52:04;5.25;;;4.35;;
10347;SDS011;5220;43.192;23.284;2023-11-19T11:54:31;6.18;;;4.50;;
10347;SDS011;5220;43.192;23.284;2023-11-19T11:57:03;14.02;;;9.13;;
10347;SDS011;5220;43.192;23.284;2023-11-19T11:59:36;10.60;;;7.95;;
10347;SDS011;5220;43.192;23.284;2023-11-19T12:02:10;22.38;;;15.32;;
10347;SDS011;5220;43.192;23.284;2023-11-19T12:04:39;5.35;;;3.10;;
10347;SDS011;5220;43.192;23.284;2023-11-19T12:07:10;3.50;;;3.10;;
10347;SDS011;5220;43.192;23.284;2023-11-19T12:09:40;2.28;;;2.10;;
10347;SDS011;5220;43.192;23.284;2023-11-19T12:12:07;2.38;;;2.17;;
10347;SDS011;5220;43.192;23.284;2023-11-19T12:15:05;5.40;;;4.82;;
10347;SDS011;5220;43.192;23.284;2023-11-19T12:17:41;7.80;;;7.20;;
10347;SDS011;5220;43.192;23.284;2023-11-19T12:20:15;4.18;;;3.00;;
10347;SDS011;5220;43.192;23.284;2023-11-19T12:22:45;3.40;;;2.25;;
10347;SDS011;5220;43.192;23.284;2023-11-19T12:25:14;2.92;;;2.47;;
10347;SDS011;5220;43.192;23.284;2023-11-19T12:27:43;4.85;;;2.72;;
10347;SDS011;5220;43.192;23.284;2023-11-19T12:30:10;2.85;;;2.63;;
10347;SDS011;5220;43.192;23.284;2023-11-19T12:32:38;4.13;;;2.00;;
10347;SDS011;5220;43.192;23.284;2023-11-19T12:35:06;1.85;;;1.75;;
10347;SDS011;5220;43.192;23.284;2023-11-19T12:37:38;1.33;;;1.33;;
10347;SDS011;5220;43.192;23.284;2023-11-19T12:40:12;1.95;;;1.75;;
10347;SDS011;5220;43.192;23.284;2023-11-19T12:42:40;1.30;;;1.20;;
10347;SDS011;5220;43.192;23.284;2023-11-19T12:45:07;1.35;;;1.20;;
10347;SDS011;5220;43.192;23.284;2023-11-19T12:47:35;1.67;;;1.35;;
10347;SDS011;5220;43.192;23.284;2023-11-19T12:50:02;1.35;;;1.25;;
10347;SDS011;5220;43.192;23.284;2023-11-19T12:52:29;1.67;;;1.30;;
10347;SDS011;5220;43.192;23.284;2023-11-19T12:54:56;1.50;;;1.40;;
10347;SDS011;5220;43.192;23.284;2023-11-19T12:57:36;1.60;;;1.50;;
10347;SDS011;5220;43.192;23.284;2023-11-19T13:00:04;3.25;;;2.95;;
10347;SDS011;5220;43.192;23.284;2023-11-19T13:02:47;8.90;;;6.90;;
10347;SDS011;5220;43.192;23.284;2023-11-19T13:05:24;6.63;;;5.95;;
10347;SDS011;5220;43.192;23.284;2023-11-19T13:08:02;4.22;;;3.35;;
10347;SDS011;5220;43.192;23.284;2023-11-19T13:10:30;5.40;;;4.53;;
10347;SDS011;5220;43.192;23.284;2023-11-19T13:13:03;4.53;;;3.80;;
10347;SDS011;5220;43.192;23.284;2023-11-19T13:15:31;7.45;;;5.55;;
10347;SDS011;5220;43.192;23.284;2023-11-19T13:17:58;5.93;;;4.60;;
10347;SDS011;5220;43.192;23.284;2023-11-19T13:20:24;2.97;;;2.78;;
10347;SDS011;5220;43.192;23.284;2023-11-19T13:22:57;2.72;;;2.53;;
10347;SDS011;5220;43.192;23.284;2023-11-19T13:25:25;3.13;;;2.90;;
10347;SDS011;5220;43.192;23.284;2023-11-19T13:27:52;4.47;;;4.07;;
10347;SDS011;5220;43.192;23.284;2023-11-19T13:30:21;5.18;;;4.43;;
10347;SDS011;5220;43.192;23.284;2023-11-19T13:32:48;3.35;;;3.05;;
10347;SDS011;5220;43.192;23.284;2023-11-19T13:35:16;4.55;;;4.15;;
10347;SDS011;5220;43.192;23.284;2023-11-19T13:37:44;5.00;;;4.50;;
10347;SDS011;5220;43.192;23.284;2023-11-19T13:40:11;5.38;;;4.68;;
10347;SDS011;5220;43.192;23.284;2023-11-19T13:42:40;5.72;;;4.15;;
10347;SDS011;5220;43.192;23.284;2023-11-19T13:45:08;5.57;;;4.70;;
10347;SDS011;5220;43.192;23.284;2023-11-19T13:47:38;4.90;;;4.30;;
10347;SDS011;5220;43.192;23.284;2023-11-19T13:50:07;5.93;;;5.32;;
10347;SDS011;5220;43.192;23.284;2023-11-19T13:52:35;6.32;;;5.07;;
10347;SDS011;5220;43.192;23.284;2023-11-19T13:55:04;8.05;;;6.97;;
10347;SDS011;5220;43.192;23.284;2023-11-19T13:57:32;14.55;;;11.52;;
10347;SDS011;5220;43.192;23.284;2023-11-19T13:59:59;17.77;;;13.52;;
10347;SDS011;5220;43.192;23.284;2023-11-19T14:02:27;20.05;;;14.32;;
10347;SDS011;5220;43.192;23.284;2023-11-19T14:04:55;21.23;;;16.02;;
10347;SDS011;5220;43.192;23.284;2023-11-19T14:07:22;22.90;;;16.02;;
10347;SDS011;5220;43.192;23.284;2023-11-19T14:09:49;22.67;;;16.23;;
10347;SDS011;5220;43.192;23.284;2023-11-19T14:12:15;11.88;;;9.65;;
10347;SDS011;5220;43.192;23.284;2023-11-19T14:14:42;10.40;;;8.85;;
10347;SDS011;5220;43.192;23.284;2023-11-19T14:17:09;13.82;;;10.90;;
10347;SDS011;5220;43.192;23.284;2023-11-19T14:19:36;14.85;;;10.45;;
10347;SDS011;5220;43.192;23.284;2023-11-19T14:22:05;10.02;;;7.53;;
10347;SDS011;5220;43.192;23.284;2023-11-19T14:24:31;7.15;;;6.00;;
10347;SDS011;5220;43.192;23.284;2023-11-19T14:26:58;6.32;;;5.70;;
10347;SDS011;5220;43.192;23.284;2023-11-19T14:29:26;5.68;;;5.07;;
10347;SDS011;5220;43.192;23.284;2023-11-19T14:31:53;6.97;;;6.38;;
10347;SDS011;5220;43.192;23.284;2023-11-19T14:34:20;4.30;;;3.90;;
10347;SDS011;5220;43.192;23.284;2023-11-19T14:36:47;3.95;;;3.22;;
10347;SDS011;5220;43.192;23.284;2023-11-19T14:39:15;15.20;;;9.13;;
10347;SDS011;5220;43.192;23.284;2023-11-19T14:41:42;14.35;;;7.95;;
10347;SDS011;5220;43.192;23.284;2023-11-19T14:44:10;18.95;;;11.05;;
10347;SDS011;5220;43.192;23.284;2023-11-19T14:46:36;25.40;;;16.30;;
10347;SDS011;5220;43.192;23.284;2023-11-19T14:49:03;22.20;;;12.88;;
10347;SDS011;5220;43.192;23.284;2023-11-19T14:51:30;9.45;;;6.47;;
10347;SDS011;5220;43.192;23.284;2023-11-19T14:53:57;4.55;;;3.13;;